Time;durP1;ratioP1;P1;durP2;ratioP2;P2;SDS_P1;SDS_P2;PMS_P1;PMS_P2;Temp;Humidity;BMP_temperature;BMP_pressure;BME280_temperature;BME280_humidity;BME280_pressure;Samples;Min_cycle;Max_cycle;Signal;HPM_P1;HPM_P2
2021/08/03 00:01:27;;;;;;;7.18;3.17;;;;;;;11.72;91.12;101652.03;5075804;28;20089;-78
2021/08/03 00:04:10;;;;;;;7.97;3.40;;;;;;;11.72;90.53;101652.03;5055590;28;20551;-82
2021/08/03 00:06:41;;;;;;;5.75;3.40;;;;;;;11.71;90.96;101649.34;5070830;28;20479;-79
2021/08/03 00:09:08;;;;;;;5.72;3.58;;;;;;;11.70;90.85;101651.09;5076280;28;20025;-77
2021/08/03 00:11:34;;;;;;;6.07;3.03;;;;;;;11.69;91.09;101640.50;5075645;28;20500;-79
2021/08/03 00:14:23;;;;;;;6.75;3.55;;;;;;;11.68;90.93;101647.53;5071388;28;20043;-78
2021/08/03 00:16:49;;;;;;;9.10;3.25;;;;;;;11.68;91.03;101639.63;5056014;28;20028;-80
2021/08/03 00:19:14;;;;;;;6.13;3.03;;;;;;;11.68;91.14;101644.91;5056215;28;20025;-77
2021/08/03 00:21:40;;;;;;;6.97;3.05;;;;;;;11.66;91.13;101640.44;5057507;28;20421;-77
2021/08/03 00:24:06;;;;;;;7.13;3.03;;;;;;;11.64;91.17;101641.28;5076523;28;20490;-81
2021/08/03 00:26:52;;;;;;;5.68;3.08;;;;;;;11.61;91.39;101632.41;5074750;28;20032;-77
2021/08/03 00:29:18;;;;;;;8.55;3.15;;;;;;;11.60;91.61;101641.19;5074059;28;20058;-78
2021/08/03 00:32:03;;;;;;;5.45;3.28;;;;;;;11.55;91.64;101627.88;5075208;28;20039;-78
2021/08/03 00:34:36;;;;;;;6.90;2.58;;;;;;;11.54;91.34;101626.06;5072495;28;20068;-79
2021/08/03 00:37:03;;;;;;;8.05;3.42;;;;;;;11.53;91.18;101629.59;5055362;28;20056;-82
2021/08/03 00:39:28;;;;;;;9.32;3.10;;;;;;;11.51;91.21;101622.50;5055450;28;20055;-78
2021/08/03 00:42:14;;;;;;;5.85;3.20;;;;;;;11.49;91.41;101627.72;5055137;28;20051;-80
2021/08/03 00:44:59;;;;;;;6.25;3.67;;;;;;;11.42;91.35;101626.69;5055431;28;20380;-80
2021/08/03 00:47:25;;;;;;;7.85;3.13;;;;;;;11.37;91.37;101628.28;5064109;28;20047;-80
2021/08/03 00:49:50;;;;;;;9.43;3.00;;;;;;;11.33;91.40;101626.44;5064716;28;20029;-79
2021/08/03 00:52:17;;;;;;;9.88;3.60;;;;;;;11.26;91.68;101629.78;5055063;28;20035;-79
2021/08/03 00:55:03;;;;;;;6.57;3.15;;;;;;;11.20;91.93;101635.75;5055325;28;20044;-80
2021/08/03 00:57:29;;;;;;;5.90;3.53;;;;;;;11.16;91.76;101630.38;5055128;28;20116;-82
2021/08/03 00:59:54;;;;;;;7.03;3.70;;;;;;;11.13;92.16;101629.41;5064368;28;20055;-78
2021/08/03 01:02:40;;;;;;;5.72;3.65;;;;;;;11.12;92.26;101632.00;5075186;28;20054;-79
2021/08/03 01:05:06;;;;;;;10.27;3.38;;;;;;;11.09;91.98;101627.56;5074850;28;20153;-80
2021/08/03 01:08:30;;;;;;;6.35;3.28;;;;;;;11.08;92.13;101620.53;5083889;28;20012;-78
2021/08/03 01:11:27;;;;;;;5.30;3.28;;;;;;;11.06;91.81;101618.69;5021533;28;20107;-79
2021/08/03 01:14:38;;;;;;;7.75;3.03;;;;;;;11.03;92.07;101616.88;5032665;28;20037;-76
2021/08/03 01:17:14;;;;;;;4.75;2.83;;;;;;;11.03;91.82;101613.31;5054309;28;20487;-79
2021/08/03 01:20:25;;;;;;;6.03;3.30;;;;;;;11.03;91.72;101616.88;5054070;28;20029;-80
2021/08/03 01:23:15;;;;;;;6.55;3.13;;;;;;;11.03;91.75;101613.31;5054504;28;20055;-78
2021/08/03 01:26:15;;;;;;;4.93;3.15;;;;;;;11.04;92.63;101613.38;5054870;28;20438;-81
2021/08/03 01:29:23;;;;;;;8.95;3.50;;;;;;;11.07;92.31;101613.47;5055043;28;20033;-81
2021/08/03 01:32:09;;;;;;;6.13;3.20;;;;;;;11.08;92.59;101612.63;5054355;28;20029;-80
2021/08/03 01:34:40;;;;;;;7.22;3.50;;;;;;;11.08;92.70;101610.00;5054354;28;20040;-77
2021/08/03 01:37:26;;;;;;;4.90;3.40;;;;;;;11.10;92.65;101608.28;5074717;28;20044;-78
2021/08/03 01:39:58;;;;;;;6.85;3.83;;;;;;;11.10;92.89;101608.28;5053697;28;20384;-78
2021/08/03 01:42:44;;;;;;;10.98;3.80;;;;;;;11.11;92.96;101609.19;5054196;28;20044;-80
2021/08/03 01:45:31;;;;;;;4.95;3.45;;;;;;;11.10;92.93;101604.75;5054350;28;20037;-77
2021/08/03 01:47:57;;;;;;;7.07;3.38;;;;;;;11.11;92.80;101606.53;5063933;28;20029;-79
2021/08/03 01:50:44;;;;;;;6.88;3.58;;;;;;;11.12;92.72;101609.22;5074065;28;20052;-81
2021/08/03 01:53:10;;;;;;;6.38;3.58;;;;;;;11.12;92.62;101611.84;5073745;28;20027;-82
2021/08/03 01:55:37;;;;;;;7.60;4.03;;;;;;;11.13;92.60;101610.09;5074117;28;20102;-79
2021/08/03 01:58:04;;;;;;;5.90;3.60;;;;;;;11.12;92.80;101606.59;5073907;28;20029;-77
2021/08/03 02:00:30;;;;;;;7.20;4.28;;;;;;;11.12;92.89;101611.84;5057641;28;20021;-82
2021/08/03 02:02:56;;;;;;;6.25;4.10;;;;;;;11.16;92.94;101617.19;5054043;28;20025;-79
2021/08/03 02:05:46;;;;;;;5.97;4.60;;;;;;;11.19;93.09;101612.00;5053650;28;20037;-79
2021/08/03 02:08:12;;;;;;;8.52;5.20;;;;;;;11.23;93.47;101622.69;5053243;28;20518;-79
2021/08/03 02:10:58;;;;;;;10.02;5.20;;;;;;;11.28;93.53;101622.78;5053924;28;20025;-81
2021/08/03 02:13:27;;;;;;;9.32;5.05;;;;;;;11.34;93.42;101617.69;5053514;28;20039;-79
2021/08/03 02:16:13;;;;;;;9.27;5.20;;;;;;;11.40;93.50;101614.31;5069779;28;20029;-80
2021/08/03 02:18:38;;;;;;;8.07;4.38;;;;;;;11.43;93.08;101607.34;5071336;28;20031;-77
2021/08/03 02:21:03;;;;;;;6.72;4.88;;;;;;;11.48;92.61;101610.13;5063521;28;20036;-78
2021/08/03 02:23:29;;;;;;;11.15;4.35;;;;;;;11.52;92.62;101611.09;5072316;28;20032;-77
2021/08/03 02:25:55;;;;;;;8.10;4.45;;;;;;;11.53;92.74;101605.88;5073362;28;20029;-77
2021/08/03 02:28:20;;;;;;;6.32;4.43;;;;;;;11.53;92.73;101602.31;5068415;28;20020;-77
2021/08/03 02:31:10;;;;;;;9.00;4.88;;;;;;;11.52;92.59;101600.56;5053191;28;20049;-79
2021/08/03 02:33:59;;;;;;;8.57;4.50;;;;;;;11.48;92.67;101600.47;5052956;28;20542;-80
2021/08/03 02:36:28;;;;;;;9.80;4.68;;;;;;;11.44;92.25;101597.72;5061428;28;20059;-78
2021/08/03 02:39:00;;;;;;;8.32;4.30;;;;;;;11.40;92.17;101601.13;5064396;28;20040;-79
2021/08/03 02:41:47;;;;;;;5.32;4.32;;;;;;;11.35;92.12;101601.00;5053410;28;20095;-76
2021/08/03 02:44:13;;;;;;;7.00;4.85;;;;;;;11.30;92.43;101594.75;5053282;28;20036;-80
2021/08/03 02:46:40;;;;;;;9.98;4.65;;;;;;;11.22;92.25;101602.44;5052923;28;20128;-80
2021/08/03 02:49:47;;;;;;;10.38;5.07;;;;;;;11.16;92.42;101606.66;5062454;28;20032;-81
2021/08/03 02:52:40;;;;;;;9.75;5.03;;;;;;;11.10;92.72;101607.38;5073433;28;20037;-79
2021/08/03 02:55:19;;;;;;;11.55;5.15;;;;;;;11.03;92.86;101611.59;5072693;28;20029;-81
2021/08/03 02:57:50;;;;;;;8.02;4.45;;;;;;;10.98;92.72;101605.31;5073224;28;20048;-81
2021/08/03 03:00:16;;;;;;;7.20;4.90;;;;;;;10.93;92.79;101605.19;5072389;28;20021;-81
2021/08/03 03:02:44;;;;;;;9.70;4.82;;;;;;;10.89;92.98;101610.31;5073129;28;20467;-78
2021/08/03 03:05:23;;;;;;;10.40;4.85;;;;;;;10.85;92.98;101605.81;5073229;28;20032;-80
2021/08/03 03:07:53;;;;;;;8.85;5.10;;;;;;;10.83;92.91;101607.53;5072739;28;20032;-82
2021/08/03 03:10:42;;;;;;;9.25;4.75;;;;;;;10.77;93.28;101606.50;5072959;28;20024;-83
2021/08/03 03:13:36;;;;;;;8.95;5.32;;;;;;;10.72;93.08;101604.59;5052960;28;20029;-77
2021/08/03 03:16:03;;;;;;;9.10;5.40;;;;;;;10.68;93.15;101600.09;5052756;28;20048;-82
2021/08/03 03:18:29;;;;;;;15.65;6.63;;;;;;;10.66;93.33;101602.66;5053020;28;20025;-83
2021/08/03 03:21:16;;;;;;;10.88;5.97;;;;;;;10.60;93.12;101590.22;5052601;28;20013;-82
2021/08/03 03:23:42;;;;;;;15.65;6.85;;;;;;;10.54;93.03;101590.06;5063947;28;20048;-80
2021/08/03 03:26:28;;;;;;;14.77;6.97;;;;;;;10.52;93.15;101596.13;5065742;28;20060;-79
2021/08/03 03:29:33;;;;;;;12.48;6.05;;;;;;;10.48;92.83;101583.72;5052751;28;20041;-81
2021/08/03 03:31:59;;;;;;;17.60;7.43;;;;;;;10.46;92.94;101597.72;5069562;28;20112;-80
2021/08/03 03:34:45;;;;;;;10.57;7.47;;;;;;;10.42;92.85;101595.84;5072748;28;20494;-79
2021/08/03 03:37:31;;;;;;;14.13;7.28;;;;;;;10.39;93.10;101592.22;5067450;28;20032;-81
2021/08/03 03:40:20;;;;;;;15.18;7.75;;;;;;;10.35;93.18;101588.66;5072503;28;20025;-79
2021/08/03 03:42:48;;;;;;;11.52;7.88;;;;;;;10.32;93.35;101593.75;5074983;28;20029;-80
2021/08/03 03:45:16;;;;;;;16.08;7.97;;;;;;;10.28;93.53;101591.88;5076426;28;20036;-80
2021/08/03 03:48:05;;;;;;;14.70;8.13;;;;;;;10.23;93.66;101597.03;5074444;28;20058;-80
2021/08/03 03:51:16;;;;;;;18.00;7.57;;;;;;;10.21;93.81;101597.81;5062060;28;20033;-78
2021/08/03 03:54:03;;;;;;;12.77;7.68;;;;;;;10.17;93.62;101588.94;5055950;28;20032;-79
2021/08/03 03:56:36;;;;;;;16.00;7.68;;;;;;;10.17;93.87;101590.69;5056681;28;20029;-81
2021/08/03 03:59:22;;;;;;;15.67;8.10;;;;;;;10.17;93.43;101593.31;5056124;28;20031;-82
2021/08/03 04:01:53;;;;;;;16.40;8.60;;;;;;;10.18;93.66;101584.59;5075581;28;20297;-78
2021/08/03 04:04:59;;;;;;;14.85;8.50;;;;;;;10.16;94.14;101587.16;5076381;28;20031;-78
2021/08/03 04:07:25;;;;;;;17.23;8.88;;;;;;;10.15;93.93;101582.75;5081666;28;20060;-82
2021/08/03 04:10:01;;;;;;;13.52;8.38;;;;;;;10.16;94.27;101579.28;5082615;28;20131;-79
2021/08/03 04:12:26;;;;;;;16.73;9.32;;;;;;;10.16;94.12;101575.75;5075059;28;20103;-81
2021/08/03 04:14:52;;;;;;;18.90;8.32;;;;;;;10.16;94.35;101581.91;5076082;28;20055;-78
2021/08/03 04:17:18;;;;;;;13.35;8.05;;;;;;;10.17;94.27;101583.66;5076077;28;20021;-79
2021/08/03 04:19:43;;;;;;;14.02;8.57;;;;;;;10.20;94.33;101582.88;5076290;28;20030;-78
2021/08/03 04:22:09;;;;;;;17.13;9.52;;;;;;;10.22;94.12;101582.06;5076147;28;20028;-81
2021/08/03 04:24:34;;;;;;;22.50;12.40;;;;;;;10.27;94.26;101590.13;5068689;28;20029;-80
2021/08/03 04:27:19;;;;;;;20.45;11.13;;;;;;;10.32;94.37;101596.38;5062750;28;20044;-80
2021/08/03 04:29:45;;;;;;;16.55;9.13;;;;;;;10.35;94.29;101593.91;5055866;28;20043;-82
2021/08/03 04:32:11;;;;;;;15.85;9.18;;;;;;;10.39;94.24;101590.50;5063203;28;20479;-82
2021/08/03 04:34:36;;;;;;;18.75;9.10;;;;;;;10.45;93.87;101590.69;5075974;28;20044;-80
2021/08/03 04:37:02;;;;;;;16.17;10.65;;;;;;;10.51;94.45;101581.19;5075555;28;20100;-81
2021/08/03 04:39:28;;;;;;;17.35;9.88;;;;;;;10.56;94.40;101579.59;5061680;28;20496;-79
2021/08/03 04:41:57;;;;;;;13.88;8.57;;;;;;;10.61;94.54;101584.13;5055565;28;20051;-80
2021/08/03 04:44:22;;;;;;;14.77;9.27;;;;;;;10.68;94.54;101577.28;5055413;28;20056;-81
2021/08/03 04:46:48;;;;;;;14.98;9.55;;;;;;;10.74;94.26;101577.47;5055250;28;20103;-81
2021/08/03 04:49:13;;;;;;;19.08;8.82;;;;;;;10.78;94.10;101579.34;5065696;28;20025;-79
2021/08/03 04:51:38;;;;;;;16.38;9.07;;;;;;;10.85;94.02;101579.50;5075241;28;20079;-82
2021/08/03 04:54:04;;;;;;;14.32;9.55;;;;;;;10.89;93.95;101576.09;5075060;28;20021;-82
2021/08/03 04:56:30;;;;;;;20.80;9.60;;;;;;;10.94;93.82;101572.72;5074037;28;20086;-80
2021/08/03 04:58:56;;;;;;;12.38;9.15;;;;;;;11.01;93.93;101571.16;5075409;28;20108;-78
2021/08/03 05:01:24;;;;;;;15.40;9.05;;;;;;;11.06;93.80;101566.91;5073220;28;20025;-81
2021/08/03 05:03:49;;;;;;;15.20;9.35;;;;;;;11.14;93.70;101567.09;5075437;28;20020;-81
2021/08/03 05:06:15;;;;;;;15.38;9.75;;;;;;;11.20;93.64;101571.63;5075366;28;20501;-80
2021/08/03 05:08:40;;;;;;;12.15;8.77;;;;;;;11.27;93.35;101573.56;5075163;28;20024;-81
2021/08/03 05:11:05;;;;;;;16.88;9.27;;;;;;;11.34;93.33;101580.78;5072259;28;20031;-81
2021/08/03 05:13:31;;;;;;;13.68;9.18;;;;;;;11.41;93.23;101573.94;5055305;28;20032;-80
2021/08/03 05:15:56;;;;;;;15.23;9.05;;;;;;;11.48;92.94;101571.47;5054787;28;20032;-80
2021/08/03 05:18:22;;;;;;;13.77;8.15;;;;;;;11.58;92.72;101569.94;5055326;28;20032;-78
2021/08/03 05:20:47;;;;;;;11.60;8.40;;;;;;;11.68;92.47;101573.72;5054706;28;20467;-79
2021/08/03 05:23:13;;;;;;;13.25;8.27;;;;;;;11.79;92.26;101568.69;5061843;28;20085;-79
2021/08/03 05:25:38;;;;;;;14.25;8.95;;;;;;;11.90;91.77;101568.94;5055934;28;20041;-82
2021/08/03 05:28:04;;;;;;;14.27;8.75;;;;;;;12.00;91.45;101565.66;5054616;28;20460;-80
2021/08/03 05:30:30;;;;;;;14.80;8.02;;;;;;;12.13;91.81;101558.94;5055915;28;20029;-78
2021/08/03 05:32:55;;;;;;;14.38;7.70;;;;;;;12.26;91.05;101560.97;5054389;28;20075;-81
2021/08/03 05:35:21;;;;;;;12.35;6.10;;;;;;;12.47;90.01;101554.34;5072770;28;20044;-78
2021/08/03 05:37:46;;;;;;;11.13;5.65;;;;;;;12.70;89.85;101549.53;5074373;28;20102;-79
2021/08/03 05:40:12;;;;;;;9.02;5.00;;;;;;;12.93;87.44;101543.78;5067850;28;20048;-81
2021/08/03 05:42:41;;;;;;;11.80;5.25;;;;;;;13.16;85.36;101542.44;5072178;28;20483;-77
2021/08/03 05:45:27;;;;;;;9.90;5.45;;;;;;;13.47;83.40;101537.69;5074167;28;20211;-81
2021/08/03 05:47:53;;;;;;;5.68;4.22;;;;;;;13.65;82.73;101537.06;5054834;28;20027;-81
2021/08/03 05:50:38;;;;;;;8.88;4.93;;;;;;;13.80;81.46;101531.13;5054526;28;20107;-81
2021/08/03 05:53:03;;;;;;;9.98;4.13;;;;;;;13.88;80.84;101533.00;5062294;28;20036;-79
2021/08/03 05:55:29;;;;;;;5.75;4.03;;;;;;;13.91;81.31;101538.31;5074545;28;20032;-81
2021/08/03 05:57:54;;;;;;;7.95;4.22;;;;;;;13.91;79.83;101533.91;5073863;28;20016;-81
2021/08/03 06:00:19;;;;;;;14.50;4.57;;;;;;;13.97;79.48;101534.00;5074385;28;20051;-78
2021/08/03 06:02:45;;;;;;;7.20;3.45;;;;;;;14.05;79.25;101533.22;5073346;28;20028;-78
2021/08/03 06:05:11;;;;;;;6.93;3.90;;;;;;;14.16;79.11;101543.09;5069239;28;20431;-82
2021/08/03 06:07:59;;;;;;;7.22;3.67;;;;;;;14.29;77.24;101535.28;5059501;28;20036;-78
2021/08/03 06:10:27;;;;;;;3.92;2.65;;;;;;;14.49;77.15;101533.75;5074394;28;20028;-78
2021/08/03 06:12:55;;;;;;;4.63;3.13;;;;;;;14.79;76.19;101527.06;5058693;28;20033;-79
2021/08/03 06:15:21;;;;;;;7.40;2.53;;;;;;;15.36;74.18;101523.16;5058460;28;20026;-79
2021/08/03 06:18:29;;;;;;;4.60;2.45;;;;;;;16.13;71.05;101516.56;5057119;28;20032;-80
2021/08/03 06:21:15;;;;;;;5.53;3.08;;;;;;;16.97;68.47;101519.44;5051944;28;20555;-77
2021/08/03 06:24:24;;;;;;;4.88;2.65;;;;;;;17.73;66.16;101524.72;5053581;28;20083;-77
2021/08/03 06:26:50;;;;;;;5.15;2.38;;;;;;;18.46;62.84;101514.72;5069442;28;20078;-80
2021/08/03 06:29:17;;;;;;;5.25;2.65;;;;;;;19.01;61.39;101516.19;5062826;28;20080;-79
2021/08/03 06:31:45;;;;;;;5.82;2.50;;;;;;;19.32;61.07;101506.13;5061501;28;20040;-79
2021/08/03 06:34:32;;;;;;;3.13;2.40;;;;;;;19.38;60.26;101505.19;5057797;28;20021;-77
2021/08/03 06:36:58;;;;;;;6.32;2.70;;;;;;;19.41;58.16;101491.84;5064282;28;20033;-79
2021/08/03 06:39:23;;;;;;;5.57;2.30;;;;;;;19.44;58.93;101502.47;5066563;28;20020;-78
2021/08/03 06:42:34;;;;;;;5.03;1.90;;;;;;;19.85;56.84;101497.63;5053812;28;20024;-80
2021/08/03 06:45:05;;;;;;;4.97;2.00;;;;;;;19.99;56.86;101484.09;5060243;28;20029;-80
2021/08/03 06:47:53;;;;;;;6.20;2.25;;;;;;;20.06;56.96;101491.13;5052768;28;20091;-76
2021/08/03 06:50:24;;;;;;;3.30;1.83;;;;;;;19.97;57.38;101477.91;5062108;28;20028;-81
2021/08/03 06:52:50;;;;;;;6.13;1.95;;;;;;;20.00;56.26;101475.19;5055411;28;20024;-80
2021/08/03 06:55:23;;;;;;;6.78;2.20;;;;;;;19.21;57.69;101487.56;5067402;28;20527;-80
2021/08/03 06:57:53;;;;;;;2.08;1.65;;;;;;;18.68;61.42;101505.72;5069356;28;20098;-78
2021/08/03 07:00:21;;;;;;;3.22;1.48;;;;;;;18.52;60.32;101499.59;5059398;28;20044;-79
2021/08/03 07:02:48;;;;;;;3.10;1.58;;;;;;;18.39;62.13;101511.22;5068224;28;20104;-82
2021/08/03 07:05:27;;;;;;;4.43;1.38;;;;;;;18.42;60.06;101496.97;5061584;28;20051;-78
2021/08/03 07:07:57;;;;;;;3.00;1.30;;;;;;;18.72;62.41;101511.91;5056177;28;20446;-82
2021/08/03 07:10:27;;;;;;;4.15;1.20;;;;;;;19.09;58.44;101484.13;5066719;28;20048;-80
2021/08/03 07:12:54;;;;;;;5.18;1.20;;;;;;;19.29;57.70;101492.84;5068635;28;20387;-81
2021/08/03 07:15:20;;;;;;;2.47;1.15;;;;;;;19.43;57.06;101484.69;5066379;28;20029;-81
2021/08/03 07:17:47;;;;;;;3.75;1.70;;;;;;;19.61;57.95;101496.94;5062202;28;20063;-80
2021/08/03 07:20:14;;;;;;;4.10;1.23;;;;;;;19.58;57.01;101488.09;5072473;28;20032;-80
2021/08/03 07:23:01;;;;;;;1.67;1.05;;;;;;;19.57;56.68;101486.34;5073958;28;20025;-78
2021/08/03 07:25:26;;;;;;;5.85;1.33;;;;;;;19.78;56.72;101496.78;5060699;28;20056;-77
2021/08/03 07:28:12;;;;;;;4.82;1.17;;;;;;;20.24;55.73;101483.78;5061687;28;20059;-78
2021/08/03 07:30:37;;;;;;;3.05;1.27;;;;;;;20.42;55.21;101483.53;5056976;28;20037;-81
2021/08/03 07:33:02;;;;;;;5.65;1.23;;;;;;;20.57;55.78;101481.56;5070411;28;20027;-79
2021/08/03 07:35:28;;;;;;;4.20;1.20;;;;;;;20.63;55.24;101481.44;5074666;28;20150;-80
2021/08/03 07:37:53;;;;;;;2.08;1.10;;;;;;;20.86;55.46;101483.78;5074551;28;20024;-81
2021/08/03 07:40:19;;;;;;;4.47;1.17;;;;;;;20.53;55.66;101481.56;5075188;28;20529;-78
2021/08/03 07:42:45;;;;;;;2.55;0.95;;;;;;;20.57;58.48;101494.91;5073703;28;20116;-80
2021/08/03 07:45:31;;;;;;;2.65;1.10;;;;;;;20.37;55.74;101477.38;5074854;28;20056;-81
2021/08/03 07:47:58;;;;;;;2.60;1.00;;;;;;;20.60;55.93;101477.03;5068220;28;20062;-82
2021/08/03 07:50:24;;;;;;;5.78;1.20;;;;;;;20.64;55.76;101483.22;5070678;28;20030;-78
2021/08/03 07:52:49;;;;;;;5.45;0.93;;;;;;;20.75;55.66;101478.59;5072123;28;20371;-81
2021/08/03 07:55:14;;;;;;;3.22;1.15;;;;;;;20.64;55.58;101483.22;5070730;28;20029;-80
2021/08/03 07:57:40;;;;;;;3.60;1.02;;;;;;;20.39;56.06;101484.47;5074667;28;20055;-79
2021/08/03 08:00:25;;;;;;;4.18;1.10;;;;;;;20.79;54.34;101474.97;5069595;28;20031;-81
2021/08/03 08:02:51;;;;;;;2.72;1.00;;;;;;;20.74;55.70;101479.53;5056379;28;20029;-79
2021/08/03 08:05:16;;;;;;;3.25;1.23;;;;;;;20.58;54.36;101470.84;5059062;28;20500;-78
2021/08/03 08:08:02;;;;;;;5.95;0.80;;;;;;;20.85;55.10;101474.91;5059617;28;20040;-79
2021/08/03 08:10:27;;;;;;;2.85;1.17;;;;;;;20.89;54.53;101479.28;5076310;28;20467;-77
2021/08/03 08:12:52;;;;;;;4.03;1.13;;;;;;;20.31;54.86;101480.13;5061200;28;20039;-79
2021/08/03 08:15:18;;;;;;;3.17;1.33;;;;;;;19.61;55.54;101485.41;5056449;28;20546;-79
2021/08/03 08:17:43;;;;;;;4.35;1.30;;;;;;;19.19;57.33;101491.13;5071608;28;20038;-81
2021/08/03 08:20:13;;;;;;;4.57;1.00;;;;;;;18.84;58.64;101495.84;5070379;28;20058;-79
2021/08/03 08:22:58;;;;;;;5.03;1.38;;;;;;;18.66;59.87;101490.63;5074844;28;20078;-81
2021/08/03 08:25:23;;;;;;;7.65;1.40;;;;;;;18.66;59.47;101496.81;5055896;28;20029;-79
2021/08/03 08:27:49;;;;;;;3.15;1.00;;;;;;;18.56;58.88;101496.91;5055767;28;20029;-79
2021/08/03 08:30:14;;;;;;;3.47;1.20;;;;;;;18.71;60.01;101504.81;5062451;28;20040;-80
2021/08/03 08:32:42;;;;;;;9.02;1.48;;;;;;;18.71;60.41;101503.03;5069975;28;20047;-80
2021/08/03 08:35:08;;;;;;;5.38;1.20;;;;;;;18.80;60.18;101504.75;5065847;28;20171;-81
2021/08/03 08:37:33;;;;;;;3.53;1.30;;;;;;;18.84;59.32;101505.59;5069275;28;20119;-78
2021/08/03 08:40:00;;;;;;;2.72;1.20;;;;;;;18.78;58.77;101506.53;5074750;28;20044;-81
2021/08/03 08:42:25;;;;;;;3.13;1.15;;;;;;;18.89;59.19;101508.28;5061680;28;20080;-80
2021/08/03 08:44:51;;;;;;;6.95;1.52;;;;;;;19.39;60.13;101504.28;5057960;28;20494;-79
2021/08/03 08:47:37;;;;;;;2.65;1.15;;;;;;;20.28;60.47;101507.78;5074322;28;20029;-82
2021/08/03 08:50:08;;;;;;;1.63;0.85;;;;;;;21.18;55.98;101485.06;5058082;28;20023;-78
2021/08/03 08:52:35;;;;;;;8.55;1.40;;;;;;;21.88;56.13;101477.50;5073230;28;20043;-80
2021/08/03 08:55:01;;;;;;;3.45;1.25;;;;;;;22.55;53.23;101462.69;5063316;28;20127;-80
2021/08/03 08:57:27;;;;;;;2.60;0.77;;;;;;;22.67;50.65;101456.16;5060950;28;20025;-79
2021/08/03 08:59:52;;;;;;;3.13;0.90;;;;;;;23.36;49.72;101450.84;5055886;28;20525;-82
2021/08/03 09:02:39;;;;;;;2.88;0.60;;;;;;;23.64;47.23;101440.19;5065751;28;20086;-78
2021/08/03 09:05:06;;;;;;;2.70;0.98;;;;;;;22.99;47.28;101441.03;5069580;28;20032;-78
2021/08/03 09:07:31;;;;;;;3.97;0.90;;;;;;;23.08;47.55;101440.81;5061067;28;20052;-81
2021/08/03 09:09:57;;;;;;;3.92;1.40;;;;;;;23.17;46.88;101429.88;5057630;28;20017;-78
2021/08/03 09:13:06;;;;;;;5.57;1.10;;;;;;;23.25;47.57;101448.47;5068605;28;20047;-78
2021/08/03 09:15:52;;;;;;;5.32;1.30;;;;;;;23.29;45.32;101428.66;5059361;28;20085;-79
2021/08/03 09:18:17;;;;;;;3.60;1.00;;;;;;;22.75;47.16;101438.06;5067517;28;20501;-82
2021/08/03 09:20:45;;;;;;;4.85;1.20;;;;;;;22.91;51.92;101460.00;5063575;28;20025;-80
2021/08/03 09:23:10;;;;;;;5.72;0.93;;;;;;;23.66;47.10;101442.88;5063284;28;20111;-80
2021/08/03 09:25:39;;;;;;;5.18;1.35;;;;;;;22.73;44.86;101423.81;5059167;28;20107;-77
2021/08/03 09:28:07;;;;;;;2.15;0.82;;;;;;;23.08;46.80;101433.63;5059106;28;20052;-81
2021/08/03 09:30:35;;;;;;;2.20;0.90;;;;;;;23.30;48.06;101442.94;5053904;28;20033;-81
2021/08/03 09:33:20;;;;;;;3.65;1.02;;;;;;;23.87;44.36;101423.41;5065757;28;20024;-81
2021/08/03 09:35:46;;;;;;;3.58;1.20;;;;;;;23.36;45.55;101429.38;5064887;28;20154;-79
2021/08/03 09:38:34;;;;;;;2.42;0.90;;;;;;;23.73;45.05;101422.94;5055658;28;20123;-77
2021/08/03 09:41:08;;;;;;;4.78;0.93;;;;;;;23.83;44.08;101418.16;5058505;28;20029;-81
2021/08/03 09:43:33;;;;;;;6.45;1.25;;;;;;;24.07;44.32;101416.59;5059050;28;20128;-77
2021/08/03 09:46:20;;;;;;;5.00;1.27;;;;;;;24.81;42.09;101410.66;5058027;28;20033;-81
2021/08/03 09:49:05;;;;;;;8.40;1.15;;;;;;;24.87;41.54;101410.47;5062672;28;20043;-85
2021/08/03 09:51:31;;;;;;;3.30;1.20;;;;;;;25.07;41.23;101416.03;5054110;28;20033;-81
2021/08/03 09:53:56;;;;;;;3.17;1.60;;;;;;;24.63;39.05;101404.09;5071738;28;20032;-80
2021/08/03 09:56:28;;;;;;;3.13;1.10;;;;;;;25.01;40.08;101404.59;5059951;28;20052;-82
2021/08/03 09:59:20;;;;;;;5.20;1.10;;;;;;;25.59;39.29;101405.19;5054823;28;20029;-81
2021/08/03 10:01:49;;;;;;;3.72;1.23;;;;;;;25.87;40.48;101414.06;5062298;28;20029;-81
2021/08/03 10:04:14;;;;;;;4.18;1.10;;;;;;;25.17;39.71;101413.00;5070682;28;20127;-77
2021/08/03 10:06:41;;;;;;;3.33;1.48;;;;;;;23.89;39.08;101388.47;5063980;28;20526;-79
2021/08/03 10:09:11;;;;;;;16.25;1.80;;;;;;;22.53;44.10;101411.78;5053685;28;20035;-80
2021/08/03 10:11:37;;;;;;;5.93;1.35;;;;;;;22.14;47.09;101430.50;5052334;28;20048;-79
2021/08/03 10:14:04;;;;;;;5.80;1.17;;;;;;;21.52;48.21;101441.59;5066931;28;20110;-81
2021/08/03 10:16:51;;;;;;;2.10;1.13;;;;;;;21.34;50.26;101450.88;5085423;28;20023;-79
2021/08/03 10:19:37;;;;;;;13.02;2.55;;;;;;;21.12;47.39;101448.59;5074142;28;20020;-80
2021/08/03 10:22:08;;;;;;;3.17;1.77;;;;;;;20.90;49.00;101442.69;5069218;28;20071;-79
2021/08/03 10:24:53;;;;;;;4.57;1.65;;;;;;;20.63;46.70;101435.97;5063233;28;20040;-78
2021/08/03 10:27:19;;;;;;;3.28;1.50;;;;;;;20.35;48.17;101439.09;5053738;28;20540;-81
2021/08/03 10:30:08;;;;;;;3.08;1.80;;;;;;;20.33;48.36;101440.88;5053815;28;20037;-79
2021/08/03 10:32:49;;;;;;;2.90;1.55;;;;;;;20.56;48.91;101453.91;5072531;28;20039;-79
2021/08/03 10:35:18;;;;;;;1.77;1.38;;;;;;;20.33;49.69;101456.94;5073599;28;20049;-78
2021/08/03 10:37:59;;;;;;;4.68;1.67;;;;;;;20.31;50.83;101456.09;5072051;28;20028;-78
2021/08/03 10:40:43;;;;;;;2.80;1.92;;;;;;;20.36;50.38;101459.53;5053159;28;20060;-79
2021/08/03 10:43:51;;;;;;;4.60;1.83;;;;;;;20.20;50.73;101450.88;5060941;28;20457;-82
2021/08/03 10:46:16;;;;;;;4.68;1.63;;;;;;;20.11;51.65;101467.03;5073456;28;20182;-81
2021/08/03 10:48:58;;;;;;;4.57;1.80;;;;;;;19.84;54.00;101472.69;5073743;28;20447;-81
2021/08/03 10:51:25;;;;;;;8.25;1.90;;;;;;;19.59;55.35;101484.50;5073623;28;20037;-80
2021/08/03 10:54:09;;;;;;;7.72;1.90;;;;;;;19.40;59.39;101495.41;5076870;28;20024;-84
2021/08/03 10:56:52;;;;;;;;;;;;;;;19.26;58.53;101486.63;5078313;28;20024;-82
2021/08/03 10:59:38;;;;;;;3.72;1.88;;;;;;;19.08;57.92;101488.56;5075595;28;20367;-79
2021/08/03 11:02:05;;;;;;;3.60;2.00;;;;;;;18.97;58.31;101485.97;5057057;28;20040;-78
2021/08/03 11:04:40;;;;;;;3.80;1.80;;;;;;;18.90;59.80;101488.72;5068752;28;20457;-81
2021/08/03 11:07:27;;;;;;;6.00;1.92;;;;;;;18.76;59.60;101483.44;5068142;28;20119;-79
2021/08/03 11:09:57;;;;;;;4.35;1.92;;;;;;;18.57;60.46;101493.34;5074745;28;20036;-78
2021/08/03 11:12:40;;;;;;;3.25;2.08;;;;;;;18.48;61.71;101483.63;5077746;28;20490;-81
2021/08/03 11:15:29;;;;;;;;;;;;;;;18.56;59.51;101483.56;5077672;28;20029;-81
2021/08/03 11:18:37;;;;;;;4.75;1.80;;;;;;;18.45;59.82;101475.63;5058727;28;19920;-82
2021/08/03 11:21:24;;;;;;;3.38;1.75;;;;;;;18.31;59.58;101478.38;5071301;28;20087;-81
2021/08/03 11:24:26;;;;;;;3.95;1.88;;;;;;;18.41;60.44;101477.47;5067147;28;20028;-79
2021/08/03 11:26:55;;;;;;;4.57;1.98;;;;;;;18.49;61.46;101483.63;5053393;28;20032;-81
2021/08/03 11:29:42;;;;;;;2.80;1.67;;;;;;;18.46;60.57;101477.41;5074333;28;20497;-83
2021/08/03 11:32:10;;;;;;;4.85;1.75;;;;;;;18.43;60.57;101483.66;5075026;28;20031;-79
2021/08/03 11:34:56;;;;;;;5.63;1.88;;;;;;;18.52;59.96;101475.59;5067143;28;20475;-79
2021/08/03 11:37:21;;;;;;;6.05;2.08;;;;;;;18.61;60.15;101474.66;5056408;28;20029;-81
2021/08/03 11:39:49;;;;;;;4.32;2.10;;;;;;;18.60;61.85;101479.97;5072856;28;20529;-84
2021/08/03 11:42:56;;;;;;;6.68;2.00;;;;;;;18.86;61.24;101477.16;5064548;28;20029;-82
2021/08/03 11:45:22;;;;;;;6.30;1.88;;;;;;;19.02;60.71;101470.81;5059486;28;20028;-80
2021/08/03 11:47:53;;;;;;;5.82;1.98;;;;;;;19.12;58.99;101460.09;5063747;28;20098;-80
2021/08/03 11:50:39;;;;;;;4.90;2.28;;;;;;;19.37;58.38;101456.28;5055493;28;20035;-80
2021/08/03 11:53:08;;;;;;;4.32;1.90;;;;;;;20.84;57.47;101465.09;5055564;28;20048;-81
2021/08/03 11:55:57;;;;;;;5.75;1.70;;;;;;;22.32;52.75;101431.03;5056021;28;20102;-80
2021/08/03 11:58:26;;;;;;;4.57;2.33;;;;;;;22.80;47.44;101406.63;5071697;28;20039;-78